sensor_id;sensor_type;location;lat;lon;timestamp;P1;durP1;ratioP1;P2;durP2;ratioP2
13014;SDS011;6573;57.696;11.950;2024-02-26T08:00:00;5.20;;;4.10;;
13014;SDS011;6573;57.696;11.950;2024-02-26T08:02:30;5.63;;;4.20;;
13014;SDS011;6573;57.696;11.950;2024-02-26T08:05:00;5.10;;;4.50;;
13014;SDS011;6573;57.696;11.950;2024-02-26T08:07:29;5.53;;;4.20;;
13014;SDS011;6573;57.696;11.950;2024-02-26T08:09:57;7.13;;;4.73;;
13014;SDS011;6573;57.696;11.950;2024-02-26T08:12:26;5.77;;;4.20;;
13014;SDS011;6573;57.696;11.950;2024-02-26T08:14:56;6.23;;;4.80;;
13014;SDS011;6573;57.696;11.950;2024-02-26T08:17:24;6.13;;;4.37;;
13014;SDS011;6573;57.696;11.950;2024-02-26T08:19:53;7.47;;;4.50;;
13014;SDS011;6573;57.696;11.950;2024-02-26T08:22:23;5.77;;;4.63;;
13014;SDS011;6573;57.696;11.950;2024-02-26T08:24:51;8.43;;;4.30;;
13014;SDS011;6573;57.696;11.950;2024-02-26T08:27:19;7.43;;;4.40;;
13014;SDS011;6573;57.696;11.950;2024-02-26T08:29:51;6.70;;;4.40;;
13014;SDS011;6573;57.696;11.950;2024-02-26T08:32:21;5.43;;;4.53;;
13014;SDS011;6573;57.696;11.950;2024-02-26T08:34:49;8.80;;;5.10;;
13014;SDS011;6573;57.696;11.950;2024-02-26T08:37:18;6.70;;;4.70;;
13014;SDS011;6573;57.696;11.950;2024-02-26T08:39:47;5.83;;;4.73;;
13014;SDS011;6573;57.696;11.950;2024-02-26T08:42:15;6.20;;;5.33;;
13014;SDS011;6573;57.696;11.950;2024-02-26T08:44:44;8.23;;;5.20;;
13014;SDS011;6573;57.696;11.950;2024-02-26T08:47:12;8.30;;;7.10;;
13014;SDS011;6573;57.696;11.950;2024-02-26T08:49:44;9.57;;;6.10;;
13014;SDS011;6573;57.696;11.950;2024-02-26T08:52:14;7.70;;;5.40;;
13014;SDS011;6573;57.696;11.950;2024-02-26T08:54:43;6.63;;;5.30;;
13014;SDS011;6573;57.696;11.950;2024-02-26T08:57:12;8.43;;;5.63;;
13014;SDS011;6573;57.696;11.950;2024-02-26T08:59:40;7.87;;;6.00;;
13014;SDS011;6573;57.696;11.950;2024-02-26T09:02:09;6.80;;;5.70;;
13014;SDS011;6573;57.696;11.950;2024-02-26T09:04:38;7.17;;;5.33;;
13014;SDS011;6573;57.696;11.950;2024-02-26T09:07:08;6.63;;;5.90;;
13014;SDS011;6573;57.696;11.950;2024-02-26T09:09:36;8.10;;;6.13;;
13014;SDS011;6573;57.696;11.950;2024-02-26T09:12:05;7.13;;;6.13;;
13014;SDS011;6573;57.696;11.950;2024-02-26T09:14:34;6.83;;;6.10;;
13014;SDS011;6573;57.696;11.950;2024-02-26T09:17:03;6.70;;;6.00;;
13014;SDS011;6573;57.696;11.950;2024-02-26T09:19:32;9.70;;;6.20;;
13014;SDS011;6573;57.696;11.950;2024-02-26T09:22:01;6.90;;;5.50;;
13014;SDS011;6573;57.696;11.950;2024-02-26T09:24:30;7.90;;;6.10;;
13014;SDS011;6573;57.696;11.950;2024-02-26T09:26:59;6.97;;;5.83;;
13014;SDS011;6573;57.696;11.950;2024-02-26T09:29:27;6.53;;;5.50;;
13014;SDS011;6573;57.696;11.950;2024-02-26T09:31:56;7.20;;;6.40;;
13014;SDS011;6573;57.696;11.950;2024-02-26T09:34:25;7.83;;;5.93;;
13014;SDS011;6573;57.696;11.950;2024-02-26T09:36:53;7.57;;;5.70;;
13014;SDS011;6573;57.696;11.950;2024-02-26T09:39:35;6.87;;;5.63;;
13014;SDS011;6573;57.696;11.950;2024-02-26T09:42:04;8.40;;;5.83;;
13014;SDS011;6573;57.696;11.950;2024-02-26T09:44:36;7.53;;;5.70;;
13014;SDS011;6573;57.696;11.950;2024-02-26T09:47:09;4.73;;;4.30;;
13014;SDS011;6573;57.696;11.950;2024-02-26T09:49:39;4.40;;;4.00;;
13014;SDS011;6573;57.696;11.950;2024-02-26T09:52:09;4.60;;;4.20;;
13014;SDS011;6573;57.696;11.950;2024-02-26T09:54:39;4.93;;;4.40;;
13014;SDS011;6573;57.696;11.950;2024-02-26T09:57:09;5.93;;;5.20;;
13014;SDS011;6573;57.696;11.950;2024-02-26T09:59:42;5.60;;;5.00;;
13014;SDS011;6573;57.696;11.950;2024-02-26T10:02:12;4.30;;;3.90;;
13014;SDS011;6573;57.696;11.950;2024-02-26T10:04:42;6.43;;;4.27;;
13014;SDS011;6573;57.696;11.950;2024-02-26T10:07:17;3.63;;;3.33;;
13014;SDS011;6573;57.696;11.950;2024-02-26T10:09:47;3.80;;;3.50;;
13014;SDS011;6573;57.696;11.950;2024-02-26T10:12:15;5.20;;;3.30;;
13014;SDS011;6573;57.696;11.950;2024-02-26T10:14:45;4.33;;;3.40;;
13014;SDS011;6573;57.696;11.950;2024-02-26T10:17:14;3.80;;;3.40;;
13014;SDS011;6573;57.696;11.950;2024-02-26T10:19:43;4.30;;;3.30;;
13014;SDS011;6573;57.696;11.950;2024-02-26T10:22:11;3.53;;;2.93;;
13014;SDS011;6573;57.696;11.950;2024-02-26T10:24:40;3.23;;;2.67;;
13014;SDS011;6573;57.696;11.950;2024-02-26T10:27:10;3.17;;;2.87;;
13014;SDS011;6573;57.696;11.950;2024-02-26T10:29:38;3.10;;;2.80;;
13014;SDS011;6573;57.696;11.950;2024-02-26T10:32:09;4.40;;;3.53;;
13014;SDS011;6573;57.696;11.950;2024-02-26T10:34:40;3.70;;;2.97;;
13014;SDS011;6573;57.696;11.950;2024-02-26T10:37:09;4.00;;;3.33;;
13014;SDS011;6573;57.696;11.950;2024-02-26T10:39:38;4.53;;;3.30;;
13014;SDS011;6573;57.696;11.950;2024-02-26T10:42:06;5.93;;;4.07;;
13014;SDS011;6573;57.696;11.950;2024-02-26T10:44:44;5.97;;;4.63;;
13014;SDS011;6573;57.696;11.950;2024-02-26T10:47:15;4.30;;;3.30;;
13014;SDS011;6573;57.696;11.950;2024-02-26T10:49:47;3.93;;;2.53;;
13014;SDS011;6573;57.696;11.950;2024-02-26T10:52:16;3.30;;;3.00;;
13014;SDS011;6573;57.696;11.950;2024-02-26T10:54:46;3.70;;;2.80;;
13014;SDS011;6573;57.696;11.950;2024-02-26T10:57:19;3.90;;;3.13;;
13014;SDS011;6573;57.696;11.950;2024-02-26T10:59:49;3.73;;;2.93;;
13014;SDS011;6573;57.696;11.950;2024-02-26T11:02:19;3.77;;;3.10;;
13014;SDS011;6573;57.696;11.950;2024-02-26T11:04:48;3.73;;;2.60;;
13014;SDS011;6573;57.696;11.950;2024-02-26T11:07:17;2.97;;;2.73;;
13014;SDS011;6573;57.696;11.950;2024-02-26T11:09:47;3.77;;;3.00;;
13014;SDS011;6573;57.696;11.950;2024-02-26T11:12:20;3.87;;;2.90;;
13014;SDS011;6573;57.696;11.950;2024-02-26T11:14:50;3.90;;;3.00;;
13014;SDS011;6573;57.696;11.950;2024-02-26T11:17:21;2.83;;;2.33;;
13014;SDS011;6573;57.696;11.950;2024-02-26T11:19:53;3.40;;;2.50;;
13014;SDS011;6573;57.696;11.950;2024-02-26T11:22:24;4.03;;;3.63;;
13014;SDS011;6573;57.696;11.950;2024-02-26T11:24:54;3.67;;;3.23;;
13014;SDS011;6573;57.696;11.950;2024-02-26T11:27:27;3.40;;;3.10;;
13014;SDS011;6573;57.696;11.950;2024-02-26T11:30:00;3.60;;;3.30;;
13014;SDS011;6573;57.696;11.950;2024-02-26T11:32:32;4.20;;;3.80;;
13014;SDS011;6573;57.696;11.950;2024-02-26T11:35:02;4.37;;;3.73;;
13014;SDS011;6573;57.696;11.950;2024-02-26T11:37:34;4.20;;;3.80;;
13014;SDS011;6573;57.696;11.950;2024-02-26T11:40:09;4.07;;;3.67;;
13014;SDS011;6573;57.696;11.950;2024-02-26T11:42:44;4.00;;;3.60;;
13014;SDS011;6573;57.696;11.950;2024-02-26T11:48:22;3.50;;;3.20;;
13014;SDS011;6573;57.696;11.950;2024-02-26T11:50:52;3.67;;;3.00;;
13014;SDS011;6573;57.696;11.950;2024-02-26T11:53:22;3.73;;;3.43;;
13014;SDS011;6573;57.696;11.950;2024-02-26T11:58:59;3.30;;;3.00;;
13014;SDS011;6573;57.696;11.950;2024-02-26T12:01:36;5.37;;;4.03;;
13014;SDS011;6573;57.696;11.950;2024-02-26T12:04:08;5.13;;;3.57;;
13014;SDS011;6573;57.696;11.950;2024-02-26T12:06:45;3.47;;;3.17;;
13014;SDS011;6573;57.696;11.950;2024-02-26T12:11:59;4.17;;;3.80;;
13014;SDS011;6573;57.696;11.950;2024-02-26T12:14:32;4.27;;;3.93;;
13014;SDS011;6573;57.696;11.950;2024-02-26T12:17:01;3.80;;;3.50;;
13014;SDS011;6573;57.696;11.950;2024-02-26T12:19:34;3.97;;;3.60;;
13014;SDS011;6573;57.696;11.950;2024-02-26T12:22:09;5.73;;;4.07;;
13014;SDS011;6573;57.696;11.950;2024-02-26T12:24:41;5.13;;;4.53;;
13014;SDS011;6573;57.696;11.950;2024-02-26T12:27:09;4.43;;;4.03;;
13014;SDS011;6573;57.696;11.950;2024-02-26T12:29:39;4.23;;;3.87;;
13014;SDS011;6573;57.696;11.950;2024-02-26T12:32:08;6.37;;;4.93;;
13014;SDS011;6573;57.696;11.950;2024-02-26T12:34:37;4.80;;;4.00;;
13014;SDS011;6573;57.696;11.950;2024-02-26T12:37:06;7.87;;;4.80;;
13014;SDS011;6573;57.696;11.950;2024-02-26T12:39:36;6.27;;;5.37;;
13014;SDS011;6573;57.696;11.950;2024-02-26T12:42:05;6.10;;;4.17;;
13014;SDS011;6573;57.696;11.950;2024-02-26T12:44:34;4.90;;;4.40;;
13014;SDS011;6573;57.696;11.950;2024-02-26T12:47:04;6.63;;;4.40;;
13014;SDS011;6573;57.696;11.950;2024-02-26T12:49:33;5.13;;;4.60;;
13014;SDS011;6573;57.696;11.950;2024-02-26T12:52:01;5.00;;;4.60;;
13014;SDS011;6573;57.696;11.950;2024-02-26T12:54:30;4.30;;;3.90;;
13014;SDS011;6573;57.696;11.950;2024-02-26T12:57:00;4.90;;;4.30;;
13014;SDS011;6573;57.696;11.950;2024-02-26T12:59:31;4.43;;;4.03;;
13014;SDS011;6573;57.696;11.950;2024-02-26T13:02:00;5.03;;;3.80;;
13014;SDS011;6573;57.696;11.950;2024-02-26T13:04:35;4.33;;;3.93;;
13014;SDS011;6573;57.696;11.950;2024-02-26T13:07:04;4.73;;;3.73;;
13014;SDS011;6573;57.696;11.950;2024-02-26T13:09:33;4.93;;;4.47;;
13014;SDS011;6573;57.696;11.950;2024-02-26T13:12:03;4.60;;;4.20;;
13014;SDS011;6573;57.696;11.950;2024-02-26T13:14:33;4.50;;;4.17;;
13014;SDS011;6573;57.696;11.950;2024-02-26T13:17:01;5.77;;;4.63;;
13014;SDS011;6573;57.696;11.950;2024-02-26T13:19:30;6.70;;;5.50;;
13014;SDS011;6573;57.696;11.950;2024-02-26T13:22:05;8.37;;;5.60;;
13014;SDS011;6573;57.696;11.950;2024-02-26T13:24:34;6.70;;;5.30;;
13014;SDS011;6573;57.696;11.950;2024-02-26T13:27:03;6.80;;;5.70;;
13014;SDS011;6573;57.696;11.950;2024-02-26T13:29:33;5.80;;;5.20;;
13014;SDS011;6573;57.696;11.950;2024-02-26T13:32:02;7.50;;;4.17;;
13014;SDS011;6573;57.696;11.950;2024-02-26T13:34:33;7.13;;;4.43;;
13014;SDS011;6573;57.696;11.950;2024-02-26T13:37:02;7.07;;;5.77;;
13014;SDS011;6573;57.696;11.950;2024-02-26T13:39:33;6.10;;;4.47;;
13014;SDS011;6573;57.696;11.950;2024-02-26T13:42:08;4.87;;;4.47;;
13014;SDS011;6573;57.696;11.950;2024-02-26T13:44:38;4.67;;;4.30;;
13014;SDS011;6573;57.696;11.950;2024-02-26T13:47:07;4.73;;;4.03;;
13014;SDS011;6573;57.696;11.950;2024-02-26T13:49:36;5.80;;;5.20;;
13014;SDS011;6573;57.696;11.950;2024-02-26T13:52:04;5.33;;;4.40;;
13014;SDS011;6573;57.696;11.950;2024-02-26T13:54:34;5.77;;;4.43;;
13014;SDS011;6573;57.696;11.950;2024-02-26T13:57:05;4.10;;;3.70;;
13014;SDS011;6573;57.696;11.950;2024-02-26T13:59:35;5.00;;;4.43;;
13014;SDS011;6573;57.696;11.950;2024-02-26T14:02:03;9.73;;;4.43;;
13014;SDS011;6573;57.696;11.950;2024-02-26T14:04:33;6.93;;;4.20;;
13014;SDS011;6573;57.696;11.950;2024-02-26T14:07:02;4.47;;;3.97;;
13014;SDS011;6573;57.696;11.950;2024-02-26T14:09:31;7.37;;;4.80;;
13014;SDS011;6573;57.696;11.950;2024-02-26T14:12:16;15.33;;;5.20;;
13014;SDS011;6573;57.696;11.950;2024-02-26T14:14:48;5.13;;;4.50;;
13014;SDS011;6573;57.696;11.950;2024-02-26T14:17:16;5.60;;;5.10;;
13014;SDS011;6573;57.696;11.950;2024-02-26T14:19:45;6.10;;;4.70;;
13014;SDS011;6573;57.696;11.950;2024-02-26T14:22:14;8.20;;;4.80;;
13014;SDS011;6573;57.696;11.950;2024-02-26T14:24:43;6.33;;;3.90;;
13014;SDS011;6573;57.696;11.950;2024-02-26T14:27:12;9.20;;;4.77;;
13014;SDS011;6573;57.696;11.950;2024-02-26T14:29:44;4.90;;;4.20;;
13014;SDS011;6573;57.696;11.950;2024-02-26T14:32:12;6.37;;;4.27;;
13014;SDS011;6573;57.696;11.950;2024-02-26T14:34:41;5.33;;;4.83;;
13014;SDS011;6573;57.696;11.950;2024-02-26T14:37:10;6.13;;;4.90;;
13014;SDS011;6573;57.696;11.950;2024-02-26T14:39:38;5.73;;;4.83;;
13014;SDS011;6573;57.696;11.950;2024-02-26T14:42:06;5.87;;;5.13;;
13014;SDS011;6573;57.696;11.950;2024-02-26T14:44:35;5.80;;;4.97;;
13014;SDS011;6573;57.696;11.950;2024-02-26T14:47:05;9.20;;;5.10;;
13014;SDS011;6573;57.696;11.950;2024-02-26T14:49:34;5.67;;;5.17;;
13014;SDS011;6573;57.696;11.950;2024-02-26T14:52:03;6.70;;;6.10;;
13014;SDS011;6573;57.696;11.950;2024-02-26T14:54:33;6.50;;;5.90;;
13014;SDS011;6573;57.696;11.950;2024-02-26T14:57:05;6.90;;;6.30;;
13014;SDS011;6573;57.696;11.950;2024-02-26T14:59:34;9.37;;;6.57;;
13014;SDS011;6573;57.696;11.950;2024-02-26T15:02:06;9.70;;;6.80;;
13014;SDS011;6573;57.696;11.950;2024-02-26T15:04:36;7.47;;;6.70;;
13014;SDS011;6573;57.696;11.950;2024-02-26T15:07:05;8.00;;;6.70;;
13014;SDS011;6573;57.696;11.950;2024-02-26T15:09:40;7.77;;;6.80;;
13014;SDS011;6573;57.696;11.950;2024-02-26T15:12:08;13.10;;;7.90;;
13014;SDS011;6573;57.696;11.950;2024-02-26T15:14:37;8.70;;;7.57;;
13014;SDS011;6573;57.696;11.950;2024-02-26T15:17:07;11.20;;;7.33;;
13014;SDS011;6573;57.696;11.950;2024-02-26T15:19:39;7.17;;;6.40;;
13014;SDS011;6573;57.696;11.950;2024-02-26T15:22:08;6.83;;;6.23;;
13014;SDS011;6573;57.696;11.950;2024-02-26T15:24:38;9.27;;;7.50;;
13014;SDS011;6573;57.696;11.950;2024-02-26T15:27:06;9.77;;;8.33;;
13014;SDS011;6573;57.696;11.950;2024-02-26T15:29:37;16.33;;;11.20;;
13014;SDS011;6573;57.696;11.950;2024-02-26T15:32:07;14.50;;;10.90;;
13014;SDS011;6573;57.696;11.950;2024-02-26T15:34:36;16.77;;;11.30;;
13014;SDS011;6573;57.696;11.950;2024-02-26T15:37:06;21.43;;;10.43;;
13014;SDS011;6573;57.696;11.950;2024-02-26T15:39:39;11.10;;;9.93;;
13014;SDS011;6573;57.696;11.950;2024-02-26T15:42:07;21.37;;;10.53;;
13014;SDS011;6573;57.696;11.950;2024-02-26T15:44:36;13.80;;;10.97;;
13014;SDS011;6573;57.696;11.950;2024-02-26T15:47:06;11.20;;;10.00;;
13014;SDS011;6573;57.696;11.950;2024-02-26T15:49:36;15.30;;;9.77;;
13014;SDS011;6573;57.696;11.950;2024-02-26T15:52:05;12.13;;;9.93;;
13014;SDS011;6573;57.696;11.950;2024-02-26T15:54:37;11.07;;;9.53;;
13014;SDS011;6573;57.696;11.950;2024-02-26T15:57:10;10.90;;;9.83;;
13014;SDS011;6573;57.696;11.950;2024-02-26T15:59:40;11.17;;;10.00;;
13014;SDS011;6573;57.696;11.950;2024-02-26T16:02:11;10.40;;;9.37;;
13014;SDS011;6573;57.696;11.950;2024-02-26T16:04:40;10.80;;;9.70;;
13014;SDS011;6573;57.696;11.950;2024-02-26T16:07:08;11.27;;;10.07;;
13014;SDS011;6573;57.696;11.950;2024-02-26T16:09:49;10.43;;;9.43;;
13014;SDS011;6573;57.696;11.950;2024-02-26T16:12:19;11.53;;;9.80;;
13014;SDS011;6573;57.696;11.950;2024-02-26T16:14:57;12.43;;;9.50;;
13014;SDS011;6573;57.696;11.950;2024-02-26T16:17:29;14.73;;;9.77;;
13014;SDS011;6573;57.696;11.950;2024-02-26T16:20:03;13.33;;;10.37;;
13014;SDS011;6573;57.696;11.950;2024-02-26T16:22:34;10.67;;;9.63;;
13014;SDS011;6573;57.696;11.950;2024-02-26T16:25:03;12.33;;;9.67;;
13014;SDS011;6573;57.696;11.950;2024-02-26T16:27:36;9.57;;;8.57;;
13014;SDS011;6573;57.696;11.950;2024-02-26T16:30:07;10.03;;;8.93;;
13014;SDS011;6573;57.696;11.950;2024-02-26T16:32:40;13.30;;;9.50;;
13014;SDS011;6573;57.696;11.950;2024-02-26T16:35:12;10.53;;;9.63;;
13014;SDS011;6573;57.696;11.950;2024-02-26T16:37:43;11.80;;;10.60;;
13014;SDS011;6573;57.696;11.950;2024-02-26T16:40:16;21.97;;;11.23;;
13014;SDS011;6573;57.696;11.950;2024-02-26T16:42:48;11.13;;;10.00;;
13014;SDS011;6573;57.696;11.950;2024-02-26T16:45:17;13.53;;;11.67;;
13014;SDS011;6573;57.696;11.950;2024-02-26T16:47:49;12.87;;;11.57;;
13014;SDS011;6573;57.696;11.950;2024-02-26T16:50:19;12.23;;;11.00;;
13014;SDS011;6573;57.696;11.950;2024-02-26T16:52:48;14.33;;;11.40;;
13014;SDS011;6573;57.696;11.950;2024-02-26T16:55:19;14.07;;;11.63;;
13014;SDS011;6573;57.696;11.950;2024-02-26T16:57:48;13.83;;;11.83;;
13014;SDS011;6573;57.696;11.950;2024-02-26T17:00:18;14.90;;;13.30;;
13014;SDS011;6573;57.696;11.950;2024-02-26T17:02:56;15.03;;;13.43;;
13014;SDS011;6573;57.696;11.950;2024-02-26T17:05:28;14.40;;;12.90;;
13014;SDS011;6573;57.696;11.950;2024-02-26T17:07:56;17.53;;;13.20;;
13014;SDS011;6573;57.696;11.950;2024-02-26T17:10:25;19.87;;;13.37;;
13014;SDS011;6573;57.696;11.950;2024-02-26T17:12:55;19.03;;;12.90;;
13014;SDS011;6573;57.696;11.950;2024-02-26T17:15:24;17.63;;;12.93;;
13014;SDS011;6573;57.696;11.950;2024-02-26T17:17:54;15.00;;;13.17;;
13014;SDS011;6573;57.696;11.950;2024-02-26T17:20:26;14.43;;;13.03;;
13014;SDS011;6573;57.696;11.950;2024-02-26T17:22:55;18.37;;;13.23;;
13014;SDS011;6573;57.696;11.950;2024-02-26T17:25:24;14.77;;;12.87;;
13014;SDS011;6573;57.696;11.950;2024-02-26T17:27:53;14.37;;;12.33;;
13014;SDS011;6573;57.696;11.950;2024-02-26T17:30:21;14.40;;;12.90;;
13014;SDS011;6573;57.696;11.950;2024-02-26T17:32:50;15.83;;;14.10;;
13014;SDS011;6573;57.696;11.950;2024-02-26T17:35:20;13.77;;;12.30;;
13014;SDS011;6573;57.696;11.950;2024-02-26T17:37:50;12.27;;;10.20;;
13014;SDS011;6573;57.696;11.950;2024-02-26T17:40:18;13.97;;;10.73;;
13014;SDS011;6573;57.696;11.950;2024-02-26T17:42:47;13.93;;;11.07;;
13014;SDS011;6573;57.696;11.950;2024-02-26T17:45:15;11.87;;;9.37;;
13014;SDS011;6573;57.696;11.950;2024-02-26T17:47:45;9.60;;;8.70;;
13014;SDS011;6573;57.696;11.950;2024-02-26T17:50:14;29.60;;;8.90;;
13014;SDS011;6573;57.696;11.950;2024-02-26T17:52:46;7.93;;;7.23;;
13014;SDS011;6573;57.696;11.950;2024-02-26T17:55:16;8.97;;;8.17;;
13014;SDS011;6573;57.696;11.950;2024-02-26T17:57:46;9.70;;;7.93;;
13014;SDS011;6573;57.696;11.950;2024-02-26T18:00:16;11.33;;;8.23;;
13014;SDS011;6573;57.696;11.950;2024-02-26T18:02:47;8.70;;;7.23;;
13014;SDS011;6573;57.696;11.950;2024-02-26T18:05:19;16.23;;;8.37;;
13014;SDS011;6573;57.696;11.950;2024-02-26T18:07:52;10.23;;;8.50;;
13014;SDS011;6573;57.696;11.950;2024-02-26T18:10:21;9.07;;;8.17;;
13014;SDS011;6573;57.696;11.950;2024-02-26T18:13:13;10.67;;;8.77;;
13014;SDS011;6573;57.696;11.950;2024-02-26T18:15:43;16.70;;;9.47;;
13014;SDS011;6573;57.696;11.950;2024-02-26T18:18:15;13.73;;;9.37;;
13014;SDS011;6573;57.696;11.950;2024-02-26T18:20:47;8.80;;;7.90;;
13014;SDS011;6573;57.696;11.950;2024-02-26T18:23:27;10.10;;;8.37;;
13014;SDS011;6573;57.696;11.950;2024-02-26T18:25:57;9.10;;;8.30;;
13014;SDS011;6573;57.696;11.950;2024-02-26T18:28:28;10.50;;;9.17;;
13014;SDS011;6573;57.696;11.950;2024-02-26T18:31:15;9.23;;;8.40;;
13014;SDS011;6573;57.696;11.950;2024-02-26T18:33:44;9.13;;;8.23;;
13014;SDS011;6573;57.696;11.950;2024-02-26T18:36:15;12.03;;;8.27;;
13014;SDS011;6573;57.696;11.950;2024-02-26T18:38:52;9.43;;;8.57;;
13014;SDS011;6573;57.696;11.950;2024-02-26T18:41:23;9.20;;;8.40;;
13014;SDS011;6573;57.696;11.950;2024-02-26T18:44:01;9.97;;;8.97;;
13014;SDS011;6573;57.696;11.950;2024-02-26T18:46:29;8.63;;;7.83;;
13014;SDS011;6573;57.696;11.950;2024-02-26T18:49:00;8.17;;;7.40;;
13014;SDS011;6573;57.696;11.950;2024-02-26T18:51:29;8.93;;;8.03;;
13014;SDS011;6573;57.696;11.950;2024-02-26T18:54:00;10.20;;;7.90;;
13014;SDS011;6573;57.696;11.950;2024-02-26T18:56:32;7.50;;;6.80;;
13014;SDS011;6573;57.696;11.950;2024-02-26T18:59:02;7.07;;;6.47;;
13014;SDS011;6573;57.696;11.950;2024-02-26T19:01:31;7.23;;;6.63;;
13014;SDS011;6573;57.696;11.950;2024-02-26T19:04:01;6.90;;;6.30;;
13014;SDS011;6573;57.696;11.950;2024-02-26T19:06:30;7.27;;;6.57;;
13014;SDS011;6573;57.696;11.950;2024-02-26T19:09:05;7.93;;;6.90;;
13014;SDS011;6573;57.696;11.950;2024-02-26T19:11:34;7.77;;;7.00;;
13014;SDS011;6573;57.696;11.950;2024-02-26T19:14:03;7.27;;;6.57;;
13014;SDS011;6573;57.696;11.950;2024-02-26T19:16:34;6.80;;;6.00;;
13014;SDS011;6573;57.696;11.950;2024-02-26T19:19:07;8.60;;;6.53;;
13014;SDS011;6573;57.696;11.950;2024-02-26T19:21:38;6.30;;;5.70;;
13014;SDS011;6573;57.696;11.950;2024-02-26T19:24:08;11.17;;;6.30;;
13014;SDS011;6573;57.696;11.950;2024-02-26T19:26:39;6.10;;;5.53;;
13014;SDS011;6573;57.696;11.950;2024-02-26T19:29:09;6.50;;;5.93;;
13014;SDS011;6573;57.696;11.950;2024-02-26T19:31:38;8.00;;;7.30;;
13014;SDS011;6573;57.696;11.950;2024-02-26T19:34:08;7.47;;;6.77;;
13014;SDS011;6573;57.696;11.950;2024-02-26T19:36:43;6.93;;;6.13;;
13014;SDS011;6573;57.696;11.950;2024-02-26T19:39:14;6.83;;;6.23;;
13014;SDS011;6573;57.696;11.950;2024-02-26T19:41:43;7.37;;;6.60;;
13014;SDS011;6573;57.696;11.950;2024-02-26T19:44:11;6.90;;;6.17;;
13014;SDS011;6573;57.696;11.950;2024-02-26T19:46:52;7.20;;;5.90;;
13014;SDS011;6573;57.696;11.950;2024-02-26T19:49:20;5.30;;;4.90;;
13014;SDS011;6573;57.696;11.950;2024-02-26T19:51:50;6.37;;;5.67;;
13014;SDS011;6573;57.696;11.950;2024-02-26T19:54:20;5.53;;;4.93;;
13014;SDS011;6573;57.696;11.950;2024-02-26T19:56:49;5.40;;;4.97;;
13014;SDS011;6573;57.696;11.950;2024-02-26T19:59:20;6.10;;;5.60;;
13014;SDS011;6573;57.696;11.950;2024-02-26T20:01:50;6.37;;;5.80;;
13014;SDS011;6573;57.696;11.950;2024-02-26T20:04:18;8.70;;;6.30;;
13014;SDS011;6573;57.696;11.950;2024-02-26T20:06:54;6.30;;;5.70;;
13014;SDS011;6573;57.696;11.950;2024-02-26T20:09:25;7.70;;;7.00;;
13014;SDS011;6573;57.696;11.950;2024-02-26T20:11:57;7.60;;;6.80;;
13014;SDS011;6573;57.696;11.950;2024-02-26T20:14:31;7.20;;;6.50;;
13014;SDS011;6573;57.696;11.950;2024-02-26T20:17:02;7.90;;;7.10;;
13014;SDS011;6573;57.696;11.950;2024-02-26T20:19:31;7.40;;;6.70;;
13014;SDS011;6573;57.696;11.950;2024-02-26T20:22:04;7.53;;;6.83;;
13014;SDS011;6573;57.696;11.950;2024-02-26T20:24:37;7.87;;;6.67;;
13014;SDS011;6573;57.696;11.950;2024-02-26T20:27:06;7.47;;;6.77;;
13014;SDS011;6573;57.696;11.950;2024-02-26T20:29:36;7.93;;;7.23;;
13014;SDS011;6573;57.696;11.950;2024-02-26T20:32:05;7.80;;;6.90;;
13014;SDS011;6573;57.696;11.950;2024-02-26T20:34:35;7.37;;;6.67;;
13014;SDS011;6573;57.696;11.950;2024-02-26T20:37:10;7.77;;;6.97;;
13014;SDS011;6573;57.696;11.950;2024-02-26T20:39:41;8.53;;;7.50;;
13014;SDS011;6573;57.696;11.950;2024-02-26T20:42:13;9.30;;;6.90;;
13014;SDS011;6573;57.696;11.950;2024-02-26T20:44:45;8.40;;;6.97;;
13014;SDS011;6573;57.696;11.950;2024-02-26T20:47:19;7.53;;;6.70;;
13014;SDS011;6573;57.696;11.950;2024-02-26T20:49:49;11.97;;;10.77;;
13014;SDS011;6573;57.696;11.950;2024-02-26T20:52:21;8.00;;;7.23;;
13014;SDS011;6573;57.696;11.950;2024-02-26T20:54:51;7.63;;;6.93;;
13014;SDS011;6573;57.696;11.950;2024-02-26T20:57:20;9.50;;;6.73;;
13014;SDS011;6573;57.696;11.950;2024-02-26T20:59:49;7.83;;;6.80;;
13014;SDS011;6573;57.696;11.950;2024-02-26T21:02:18;7.43;;;6.73;;
13014;SDS011;6573;57.696;11.950;2024-02-26T21:04:55;6.27;;;5.67;;
13014;SDS011;6573;57.696;11.950;2024-02-26T21:07:24;6.50;;;5.47;;
13014;SDS011;6573;57.696;11.950;2024-02-26T21:09:56;5.37;;;4.87;;
13014;SDS011;6573;57.696;11.950;2024-02-26T21:12:24;4.63;;;4.13;;
13014;SDS011;6573;57.696;11.950;2024-02-26T21:14:53;5.60;;;4.43;;
13014;SDS011;6573;57.696;11.950;2024-02-26T21:17:23;4.37;;;3.97;;
13014;SDS011;6573;57.696;11.950;2024-02-26T21:19:51;14.87;;;4.70;;
13014;SDS011;6573;57.696;11.950;2024-02-26T21:22:22;5.33;;;4.00;;
13014;SDS011;6573;57.696;11.950;2024-02-26T21:24:50;9.87;;;5.00;;
13014;SDS011;6573;57.696;11.950;2024-02-26T21:30:13;6.03;;;4.70;;
13014;SDS011;6573;57.696;11.950;2024-02-26T21:32:44;5.87;;;4.90;;
13014;SDS011;6573;57.696;11.950;2024-02-26T21:35:15;5.00;;;4.27;;
13014;SDS011;6573;57.696;11.950;2024-02-26T21:37:44;5.63;;;5.10;;
13014;SDS011;6573;57.696;11.950;2024-02-26T21:40:12;6.23;;;5.63;;
13014;SDS011;6573;57.696;11.950;2024-02-26T21:42:42;7.37;;;5.27;;
13014;SDS011;6573;57.696;11.950;2024-02-26T21:45:10;6.53;;;5.77;;
13014;SDS011;6573;57.696;11.950;2024-02-26T21:47:39;7.97;;;5.63;;
13014;SDS011;6573;57.696;11.950;2024-02-26T21:50:08;7.73;;;6.00;;
13014;SDS011;6573;57.696;11.950;2024-02-26T21:52:37;6.77;;;6.17;;
13014;SDS011;6573;57.696;11.950;2024-02-26T21:55:07;6.30;;;5.70;;
13014;SDS011;6573;57.696;11.950;2024-02-26T21:57:38;7.70;;;6.20;;
13014;SDS011;6573;57.696;11.950;2024-02-26T22:00:09;7.27;;;6.50;;
13014;SDS011;6573;57.696;11.950;2024-02-26T22:02:38;6.87;;;6.10;;
13014;SDS011;6573;57.696;11.950;2024-02-26T22:05:07;7.73;;;5.37;;
13014;SDS011;6573;57.696;11.950;2024-02-26T22:07:35;8.47;;;6.30;;
13014;SDS011;6573;57.696;11.950;2024-02-26T22:10:04;6.07;;;5.47;;
13014;SDS011;6573;57.696;11.950;2024-02-26T22:12:34;6.63;;;5.93;;
13014;SDS011;6573;57.696;11.950;2024-02-26T22:15:03;6.50;;;5.90;;
13014;SDS011;6573;57.696;11.950;2024-02-26T22:17:36;7.23;;;6.53;;
13014;SDS011;6573;57.696;11.950;2024-02-26T22:20:10;9.13;;;6.80;;
13014;SDS011;6573;57.696;11.950;2024-02-26T22:22:39;8.87;;;6.57;;
13014;SDS011;6573;57.696;11.950;2024-02-26T22:25:08;11.83;;;6.80;;
13014;SDS011;6573;57.696;11.950;2024-02-26T22:27:37;7.10;;;6.40;;
13014;SDS011;6573;57.696;11.950;2024-02-26T22:30:06;7.43;;;6.13;;
13014;SDS011;6573;57.696;11.950;2024-02-26T22:32:37;7.43;;;6.60;;
13014;SDS011;6573;57.696;11.950;2024-02-26T22:35:05;8.63;;;7.00;;
13014;SDS011;6573;57.696;11.950;2024-02-26T22:37:34;7.40;;;6.70;;
13014;SDS011;6573;57.696;11.950;2024-02-26T22:40:05;7.20;;;6.50;;
13014;SDS011;6573;57.696;11.950;2024-02-26T22:42:35;7.57;;;6.70;;
13014;SDS011;6573;57.696;11.950;2024-02-26T22:45:05;7.43;;;6.63;;
13014;SDS011;6573;57.696;11.950;2024-02-26T22:47:34;7.13;;;6.43;;
13014;SDS011;6573;57.696;11.950;2024-02-26T22:50:04;6.67;;;5.97;;
13014;SDS011;6573;57.696;11.950;2024-02-26T22:52:35;7.10;;;6.40;;
13014;SDS011;6573;57.696;11.950;2024-02-26T22:55:04;6.63;;;6.03;;
13014;SDS011;6573;57.696;11.950;2024-02-26T22:57:34;7.07;;;6.30;;
13014;SDS011;6573;57.696;11.950;2024-02-26T23:00:10;7.07;;;6.30;;
13014;SDS011;6573;57.696;11.950;2024-02-26T23:02:52;7.73;;;6.40;;
13014;SDS011;6573;57.696;11.950;2024-02-26T23:05:22;9.53;;;7.13;;
13014;SDS011;6573;57.696;11.950;2024-02-26T23:07:52;7.00;;;6.33;;
13014;SDS011;6573;57.696;11.950;2024-02-26T23:10:22;7.23;;;6.37;;
13014;SDS011;6573;57.696;11.950;2024-02-26T23:12:50;7.10;;;6.40;;